Ecum Secum, Canada
Current Conditions -  °F | °C
As of 8:00 AM on Friday 19 Dec 2014 (Local Time) from CYPD Reporting Station
Overcast Overcast  
Wind Chill: 27°   Ceiling: 1200
Heat Index: 34°   Visibility: 9mi
Dew Point: 32°   Wind: 8mph
Humidity: 93%   Direction: 250°WSW
Pressure: 29.48"   Gusts: NA
Location:  44.97°N, 62.12°W
Report Text: CYPD 191200Z AUTO 25007KT 9SM OVC012 01/M00 A2948 RMK SLP987
Loading
Personal Weather Stations






























Interactive Weather Map New forecast layout! Learn more

10-Day Weather Forecast

Advertisements
Track Severe Weather on mobile